Aviation Digital Data Service (ADDS)

Output produced by METARs form (1642 UTC 30 March 2017)
found at http://aviationweather.gov/adds/metars/
 
KAND 301422Z 3014/3112 12007KT P6SM VCTS OVC012CB 
     FM301600 14007KT P6SM VCTS OVC020CB 
     FM310200 13007KT 6SM -SHRA BR VCTS OVC015CB 
     FM310700 17008KT 3SM RA BR OVC007